Schin op Geul, Netherlands
Current Conditions -  °F | °C
As of 8:55 PM on Thursday 27 Nov 2014 (Local Time) from EHBK Reporting Station
Haze Haze  
Wind Chill: 40°   Ceiling: 2800
Heat Index: 45°   Visibility: 3mi
Dew Point: 45°   Wind: 9mph
Humidity: 100%   Direction: 100°E
Pressure: 29.71"   Gusts: NA
Location:  50.85°N, 5.87°E
Report Text: EHBK 271955Z AUTO 10008KT 5000 BR OVC028 07/07 Q1006 BECMG 6000NSW
Loading
Personal Weather Stations






























Interactive Weather Map New forecast layout! Learn more

10-Day Weather Forecast

Advertisements
Track Severe Weather on mobile